MET'MAP v2.0
soon released !

Expected late october,
this new version will be
more efficient, smarter,
and hosted on a brand new
server x3 powerfull...
...and still free !


Not compatible ?
Try the mobile version !

LOG IN : | Subscribe | Disclaimer | Who is Orbifly ? |
ICAO code :

TAF - EGHI Southampton - 15 Nov 2019 19:07 UTC
Data Sources :     NOAA   


- Airport Elevation : 44 ft
- IATA code : SOU
- No reported NOTAMs.


EGHI - Southampton

Latest METAR recorded : 2015/08/11 07:50 EGHI 110750Z 00000KT 9999 SCT035 16/11 Q1019
TAF TAF EGHI
Valid from the 15 at 18:00 until the 15 at 23:00 UTC


151700Z 1518/1523 01012KT 9999 FEW012 SCT022
TEMPO 1518/1521 02016G26KT 6000 RA BKN012
TEMPO 1521/1523 6000 RA BKN010
PROB30
TEMPO 1521/1523 4000 BR BKN008

Source NOAA
ATIS : +44 23 8062 7103


MET'MAP, your aeronautical weather chart ! - Copyright ORBIFLY December 2007

Programming & Development : Alexandra Zaïnal
Co-Developer : Marc-Olivier Méhu
Technical & hardware support : Manuel Goepfert
Concept & Financing : Baudouin d'Aumeries